Tk Rotterdam — A8RG8 — position and weather

sailwx.info

Track history (hours):
 
Tides and Currents Weather Stations Pressure Air Temp Water Temp Dewpoint Dewpoint Depression Visibility Wind Speed Wind Dir Waves Ship Positions

Tk Rotterdam

Last reported at 2018-Jan-20 05:27 UTC. Time now 2018-Jan-20 05:36 UTC.
Position N 51°24' E 002°38'.

Length 130 m; draft 5.2 m.

Type: Cargo ship. MMSI: 636014098.

Date/timePositionNaut miles runAvg speedWind from/ knotsBaromVisibWave heightAir tempDewpointWater temp
2018-Jan-20 05:27N 51°24' E 002°38'0 0.0
2018-Jan-20 04:57N 51°24' E 002°38'0 0.0
2018-Jan-20 04:26N 51°24' E 002°38'0 0.0
2018-Jan-20 03:53N 51°24' E 002°38'0 0.0
2018-Jan-20 03:20N 51°24' E 002°38'0 0.0
2018-Jan-20 02:52N 51°24' E 002°38'0 0.0
2018-Jan-20 02:28N 51°24' E 002°38'0 0.0
2018-Jan-20 01:52N 51°24' E 002°38'0 0.0
2018-Jan-20 01:24N 51°24' E 002°38'0 0.1
2018-Jan-20 01:00N 51°24' E 002°38'0 0.0
2018-Jan-20 00:30N 51°24' E 002°38'0 0.0
2018-Jan-20 00:00N 51°24' E 002°38'0 0.1
2018-Jan-19 23:29N 51°24' E 002°38'0 0.0
2018-Jan-19 22:59N 51°24' E 002°38'0 0.0
2018-Jan-19 22:29N 51°24' E 002°38'0 0.0
2018-Jan-19 21:58N 51°24' E 002°38'0 0.0
2018-Jan-19 21:28N 51°24' E 002°38'0 0.0
2018-Jan-19 20:55N 51°24' E 002°38'0 0.0
2018-Jan-19 20:27N 51°24' E 002°38'1 2.9
2018-Jan-19 19:59N 51°24' E 002°41'4 7.6
2018-Jan-19 19:29N 51°22' E 002°46'4 8.4
2018-Jan-19 19:00N 51°23' E 002°52'4 8.6
2018-Jan-19 18:30N 51°23' E 002°59'4 8.2
2018-Jan-19 18:00N 51°24' E 003°05'4 8.6
2018-Jan-19 17:30N 51°25' E 003°12'4 8.7
2018-Jan-19 17:00N 51°25' E 003°19'4 8.3
2018-Jan-19 16:30N 51°25' E 003°26'4 8.6
2018-Jan-19 16:00N 51°26' E 003°33'4 7.5
2018-Jan-19 15:30N 51°26' E 003°39'3 6.9
2018-Jan-19 15:00N 51°24' E 003°43'4 7.4
2018-Jan-19 14:30N 51°21' E 003°47'2 4.5
2018-Jan-19 14:00N 51°20' E 003°49'0 0.4
2018-Jan-19 13:30N 51°20' E 003°49'1 1.8
2018-Jan-19 13:00N 51°19' E 003°50'2 4.7
2018-Jan-19 12:30N 51°16' E 003°50'3 6.9
2018-Jan-19 12:00N 51°13' E 003°48'3 6.8
2018-Jan-19 11:30N 51°10' E 003°47'4 7.2
2018-Jan-19 11:00N 51°07' E 003°45'1 1.2
2018-Jan-19 10:30N 51°06' E 003°44'0 0.0
2018-Jan-19 10:00N 51°06' E 003°44'0 0.0
2018-Jan-19 09:30N 51°06' E 003°44'0 0.0
2018-Jan-19 09:00N 51°06' E 003°44'0 0.0
2018-Jan-19 08:30N 51°06' E 003°44'0 0.0
2018-Jan-19 08:01N 51°06' E 003°44'0 0.0
2018-Jan-19 07:30N 51°06' E 003°44'0 0.0
2018-Jan-19 06:58N 51°06' E 003°44'0 0.0
2018-Jan-19 06:26N 51°06' E 003°44'0 0.0
2018-Jan-19 06:00N 51°06' E 003°44'0 0.0
2018-Jan-19 05:28N 51°06' E 003°44'0 0.0
2018-Jan-19 04:57N 51°06' E 003°44'0 0.0
2018-Jan-19 04:30N 51°06' E 003°44'0 0.0
2018-Jan-19 04:00N 51°06' E 003°44'0 0.0
2018-Jan-19 03:28N 51°06' E 003°44'0 0.0
2018-Jan-19 02:52N 51°06' E 003°44'0 0.0
2018-Jan-19 02:29N 51°06' E 003°44'0 0.0
2018-Jan-19 02:00N 51°06' E 003°44'0 0.0
2018-Jan-19 01:29N 51°06' E 003°44'0 0.0
2018-Jan-19 01:00N 51°06' E 003°44'0 0.0
2018-Jan-19 00:30N 51°06' E 003°44'0 0.0
2018-Jan-18 23:58N 51°06' E 003°44'0 0.0
2018-Jan-18 23:29N 51°06' E 003°44'0 0.0
2018-Jan-18 22:58N 51°06' E 003°44'0 0.0
2018-Jan-18 22:30N 51°06' E 003°44'0 0.0
2018-Jan-18 21:58N 51°06' E 003°44'0 0.0
2018-Jan-18 21:29N 51°06' E 003°44'0 0.0
2018-Jan-18 20:58N 51°06' E 003°44'0 0.0
2018-Jan-18 20:30N 51°06' E 003°44'0 0.0
2018-Jan-18 19:59N 51°06' E 003°44'0 0.0
2018-Jan-18 19:27N 51°06' E 003°44'0 0.0
2018-Jan-18 18:57N 51°06' E 003°44'0 0.0
2018-Jan-18 18:29N 51°06' E 003°44'0 0.0
2018-Jan-18 18:00N 51°06' E 003°44'0 0.0
2018-Jan-18 17:30N 51°06' E 003°44'0 0.0
2018-Jan-18 17:00N 51°06' E 003°44'0 0.0
2018-Jan-18 16:30N 51°06' E 003°44'0 0.0
2018-Jan-18 16:00N 51°06' E 003°44'0 0.0
2018-Jan-18 15:30N 51°06' E 003°44'0 0.0
2018-Jan-18 15:01N 51°06' E 003°44'0 0.0
2018-Jan-18 14:30N 51°06' E 003°44'0 0.0
2018-Jan-18 14:01N 51°06' E 003°44'0 0.0
2018-Jan-18 13:30N 51°06' E 003°44'0 0.0
2018-Jan-18 13:00N 51°06' E 003°44'0 0.0
2018-Jan-18 12:30N 51°06' E 003°44'0 0.0
2018-Jan-18 12:00N 51°06' E 003°44'0 0.0
2018-Jan-18 11:29N 51°06' E 003°44'0 0.0
2018-Jan-18 11:01N 51°06' E 003°44'0 0.0
2018-Jan-18 10:31N 51°06' E 003°44'0 0.0
2018-Jan-18 10:01N 51°06' E 003°44'0 0.0
2018-Jan-18 09:30N 51°06' E 003°44'0 0.0
2018-Jan-18 09:00N 51°06' E 003°44'0 0.0
2018-Jan-18 08:29N 51°06' E 003°44'0 0.0
2018-Jan-18 08:00N 51°06' E 003°44'0 0.0
2018-Jan-18 07:30N 51°06' E 003°44'0 0.0
2018-Jan-18 07:00N 51°06' E 003°44'0 0.0
2018-Jan-18 06:30N 51°06' E 003°44'0 0.0
2018-Jan-18 06:00N 51°06' E 003°44'0 0.0
2018-Jan-18 05:30N 51°06' E 003°44'0 0.0
2018-Jan-18 05:01N 51°06' E 003°44'0 0.0
2018-Jan-18 04:30N 51°06' E 003°44'0 0.0
2018-Jan-18 04:00N 51°06' E 003°44'0 0.0
2018-Jan-18 03:29N 51°06' E 003°44'0 0.0
2018-Jan-18 03:00N 51°06' E 003°44'0 0.0
2018-Jan-18 02:30N 51°06' E 003°44'0 0.0
2018-Jan-18 02:00N 51°06' E 003°44'0 0.0
2018-Jan-18 01:30N 51°06' E 003°44'0 0.0
2018-Jan-18 01:00N 51°06' E 003°44'0 0.0
2018-Jan-18 00:01N 51°06' E 003°44'0 0.0
2018-Jan-17 23:58N 51°06' E 003°44'  
2018-Jan-12 15:00N 51°06' E 003°44'0 0.5
2018-Jan-12 14:30N 51°06' E 003°45'1 1.8
2018-Jan-12 13:58N 51°05' E 003°45'0 0.0
2018-Jan-12 13:27N 51°05' E 003°45'0 0.0
2018-Jan-12 12:59N 51°05' E 003°45'0 0.0
2018-Jan-12 12:28N 51°05' E 003°45'0 0.0
2018-Jan-12 11:58N 51°05' E 003°45'0 0.0
2018-Jan-12 11:28N 51°05' E 003°45'0 0.0
2018-Jan-12 11:00N 51°05' E 003°45'0 0.0
2018-Jan-12 10:30N 51°05' E 003°45'0 0.0
2018-Jan-12 09:57N 51°05' E 003°45'0 0.0
2018-Jan-12 09:30N 51°05' E 003°45'0 0.0
2018-Jan-12 08:56N 51°05' E 003°45'0 0.0
2018-Jan-12 08:29N 51°05' E 003°45'0 0.0
2018-Jan-12 07:59N 51°05' E 003°45'0 0.0
2018-Jan-12 07:28N 51°05' E 003°45'0 0.0
2018-Jan-12 06:58N 51°05' E 003°45'0 0.0
2018-Jan-12 06:28N 51°05' E 003°45'0 0.0
2018-Jan-12 06:00N 51°05' E 003°45'0 0.0
2018-Jan-12 05:30N 51°05' E 003°45'0 0.0
2018-Jan-12 05:00N 51°05' E 003°45'0 0.0
2018-Jan-12 04:27N 51°05' E 003°45'0 0.0
2018-Jan-12 03:56N 51°05' E 003°45'0 0.0
2018-Jan-12 03:29N 51°05' E 003°45'0 0.0
2018-Jan-12 02:59N 51°05' E 003°45'0 0.0
2018-Jan-12 02:28N 51°05' E 003°45'0 0.0
2018-Jan-12 01:49N 51°05' E 003°45'0 0.0
2018-Jan-12 01:30N 51°05' E 003°45'0 0.0
2018-Jan-12 01:00N 51°05' E 003°45'0 0.0
2018-Jan-12 00:30N 51°05' E 003°45'0 0.0
2018-Jan-12 00:00N 51°05' E 003°45'0 0.0
2018-Jan-11 23:28N 51°05' E 003°45'0 0.0
2018-Jan-11 22:56N 51°05' E 003°45'0 0.0
2018-Jan-11 22:29N 51°05' E 003°45'0 0.0
2018-Jan-11 21:59N 51°05' E 003°45'0 0.0
2018-Jan-11 21:25N 51°05' E 003°45'0 0.0
2018-Jan-11 20:52N 51°05' E 003°45'0 0.0
2018-Jan-11 20:28N 51°05' E 003°45'0 0.0
2018-Jan-11 20:00N 51°05' E 003°45'0 0.0
2018-Jan-11 19:27N 51°05' E 003°45'0 0.0
2018-Jan-11 19:00N 51°05' E 003°45'0 0.0
2018-Jan-11 18:26N 51°05' E 003°45'0 0.0
2018-Jan-11 17:53N 51°05' E 003°45'0 0.0
2018-Jan-11 17:26N 51°05' E 003°45'0 0.0
2018-Jan-11 16:59N 51°05' E 003°45'0 0.0
2018-Jan-11 16:25N 51°05' E 003°45'0 0.0
2018-Jan-11 15:55N 51°05' E 003°45'0 0.0
2018-Jan-11 15:22N 51°05' E 003°45'0 0.0
2018-Jan-11 15:00N 51°05' E 003°45'0 0.0
2018-Jan-11 14:27N 51°05' E 003°45'0 0.0
2018-Jan-11 13:57N 51°05' E 003°45'0 0.0
2018-Jan-11 13:26N 51°05' E 003°45'0 0.0
2018-Jan-11 12:59N 51°05' E 003°45'0 0.0
2018-Jan-11 12:28N 51°05' E 003°45'0 0.0
2018-Jan-11 11:58N 51°05' E 003°45'0 0.0
2018-Jan-11 11:30N 51°05' E 003°45'0 0.0
2018-Jan-11 10:57N 51°05' E 003°45'0 0.0
2018-Jan-11 10:30N 51°05' E 003°45'0 0.0
2018-Jan-11 09:56N 51°05' E 003°45'0 0.0
2018-Jan-11 09:26N 51°05' E 003°45'0 0.0
2018-Jan-11 08:59N 51°05' E 003°45'0 0.0
2018-Jan-11 08:16N 51°05' E 003°45'0 0.0
2018-Jan-11 07:55N 51°05' E 003°45'0 0.0
2018-Jan-11 07:25N 51°05' E 003°45'0 0.0
2018-Jan-11 06:51N 51°05' E 003°45'0 0.0
2018-Jan-11 06:30N 51°05' E 003°45'0 0.0
2018-Jan-11 06:00N 51°05' E 003°45'0 0.0
2018-Jan-11 05:29N 51°05' E 003°45'0 0.0
2018-Jan-11 04:59N 51°05' E 003°45'0 0.0
2018-Jan-11 04:29N 51°05' E 003°45'0 0.0
2018-Jan-11 03:59N 51°05' E 003°45'0 0.0
2018-Jan-11 03:28N 51°05' E 003°45'0 0.0
2018-Jan-11 02:58N 51°05' E 003°45'0 0.0
2018-Jan-11 02:28N 51°05' E 003°45'0 0.0
2018-Jan-11 02:00N 51°05' E 003°45'0 0.0
2018-Jan-11 01:30N 51°05' E 003°45'0 0.0
2018-Jan-11 01:00N 51°05' E 003°45'0 0.0
2018-Jan-11 00:29N 51°05' E 003°45'0 0.0
2018-Jan-10 23:59N 51°05' E 003°45'0 0.0
2018-Jan-10 23:29N 51°05' E 003°45'0 0.0
2018-Jan-10 22:58N 51°05' E 003°45'0 0.0
2018-Jan-10 22:28N 51°05' E 003°45'0 0.0
2018-Jan-10 22:00N 51°05' E 003°45'0 0.0
2018-Jan-10 21:27N 51°05' E 003°45'0 0.0
2018-Jan-10 20:54N 51°05' E 003°45'0 0.0
2018-Jan-10 20:27N 51°05' E 003°45'0 0.0
2018-Jan-10 20:00N 51°05' E 003°45'0 0.0
2018-Jan-10 19:23N 51°05' E 003°45'0 0.0
2018-Jan-10 18:56N 51°05' E 003°45'0 0.0
2018-Jan-10 18:26N 51°05' E 003°45'0 0.0
2018-Jan-10 17:49N 51°05' E 003°45'0 0.0
2018-Jan-10 17:28N 51°05' E 003°45'0 0.0
2018-Jan-10 16:53N 51°05' E 003°45'0 0.0
2018-Jan-10 16:30N 51°05' E 003°45'0 0.0
2018-Jan-10 16:00N 51°05' E 003°45'0 0.0
2018-Jan-10 15:30N 51°05' E 003°45'0 0.0
2018-Jan-10 14:57N 51°05' E 003°45'0 0.0
2018-Jan-10 14:29N 51°05' E 003°45'0 0.0
2018-Jan-10 13:59N 51°05' E 003°45'0 0.0
2018-Jan-10 13:28N 51°05' E 003°45'0 0.0
2018-Jan-10 13:00N 51°05' E 003°45'0 0.0
2018-Jan-10 12:28N 51°05' E 003°45'0 0.0
2018-Jan-10 11:58N 51°05' E 003°45'0 0.0
2018-Jan-10 11:27N 51°05' E 003°45'0 0.0
2018-Jan-10 11:00N 51°05' E 003°45'0 0.0
2018-Jan-10 10:30N 51°05' E 003°45'0 0.0
2018-Jan-10 10:00N 51°05' E 003°45'0 0.0
2018-Jan-10 09:29N 51°05' E 003°45'0 0.0
2018-Jan-10 08:59N 51°05' E 003°45'0 0.0
2018-Jan-10 08:28N 51°05' E 003°45'0 0.0
2018-Jan-10 07:58N 51°05' E 003°45'0 0.0
2018-Jan-10 07:28N 51°05' E 003°45'0 0.0
2018-Jan-10 07:00N 51°05' E 003°45'0 0.0
2018-Jan-10 06:30N 51°05' E 003°45'0 0.0
2018-Jan-10 06:00N 51°05' E 003°45'0 0.0
2018-Jan-10 05:30N 51°05' E 003°45'  
Track history (hours):
 
Tides and Currents Weather Stations Pressure Air Temp Water Temp Dewpoint Dewpoint Depression Visibility Wind Speed Wind Dir Waves Ship Positions

Tk Rotterdam

Last reported at 2018-Jan-20 05:27 UTC. Time now 2018-Jan-20 05:36 UTC.
Position N 51°24' E 002°38'.

Length 130 m; draft 5.2 m.

Type: Cargo ship. MMSI: 636014098.

Date/timePositionNaut miles runAvg speedWind from/ knotsBaromVisibWave heightAir tempDewpointWater temp
2018-Jan-20 05:27N 51°24' E 002°38'0 0.0
2018-Jan-20 04:57N 51°24' E 002°38'0 0.0
2018-Jan-20 04:26N 51°24' E 002°38'0 0.0
2018-Jan-20 03:53N 51°24' E 002°38'0 0.0
2018-Jan-20 03:20N 51°24' E 002°38'0 0.0
2018-Jan-20 02:52N 51°24' E 002°38'0 0.0
2018-Jan-20 02:28N 51°24' E 002°38'0 0.0
2018-Jan-20 01:52N 51°24' E 002°38'0 0.0
2018-Jan-20 01:24N 51°24' E 002°38'0 0.1
2018-Jan-20 01:00N 51°24' E 002°38'0 0.0
2018-Jan-20 00:30N 51°24' E 002°38'0 0.0
2018-Jan-20 00:00N 51°24' E 002°38'0 0.1
2018-Jan-19 23:29N 51°24' E 002°38'0 0.0
2018-Jan-19 22:59N 51°24' E 002°38'0 0.0
2018-Jan-19 22:29N 51°24' E 002°38'0 0.0
2018-Jan-19 21:58N 51°24' E 002°38'0 0.0
2018-Jan-19 21:28N 51°24' E 002°38'0 0.0
2018-Jan-19 20:55N 51°24' E 002°38'0 0.0
2018-Jan-19 20:27N 51°24' E 002°38'1 2.9
2018-Jan-19 19:59N 51°24' E 002°41'4 7.6
2018-Jan-19 19:29N 51°22' E 002°46'4 8.4
2018-Jan-19 19:00N 51°23' E 002°52'4 8.6
2018-Jan-19 18:30N 51°23' E 002°59'4 8.2
2018-Jan-19 18:00N 51°24' E 003°05'4 8.6
2018-Jan-19 17:30N 51°25' E 003°12'4 8.7
2018-Jan-19 17:00N 51°25' E 003°19'4 8.3
2018-Jan-19 16:30N 51°25' E 003°26'4 8.6
2018-Jan-19 16:00N 51°26' E 003°33'4 7.5
2018-Jan-19 15:30N 51°26' E 003°39'3 6.9
2018-Jan-19 15:00N 51°24' E 003°43'4 7.4
2018-Jan-19 14:30N 51°21' E 003°47'2 4.5
2018-Jan-19 14:00N 51°20' E 003°49'0 0.4
2018-Jan-19 13:30N 51°20' E 003°49'1 1.8
2018-Jan-19 13:00N 51°19' E 003°50'2 4.7
2018-Jan-19 12:30N 51°16' E 003°50'3 6.9
2018-Jan-19 12:00N 51°13' E 003°48'3 6.8
2018-Jan-19 11:30N 51°10' E 003°47'4 7.2
2018-Jan-19 11:00N 51°07' E 003°45'1 1.2
2018-Jan-19 10:30N 51°06' E 003°44'0 0.0
2018-Jan-19 10:00N 51°06' E 003°44'0 0.0
2018-Jan-19 09:30N 51°06' E 003°44'0 0.0
2018-Jan-19 09:00N 51°06' E 003°44'0 0.0
2018-Jan-19 08:30N 51°06' E 003°44'0 0.0
2018-Jan-19 08:01N 51°06' E 003°44'0 0.0
2018-Jan-19 07:30N 51°06' E 003°44'0 0.0
2018-Jan-19 06:58N 51°06' E 003°44'0 0.0
2018-Jan-19 06:26N 51°06' E 003°44'0 0.0
2018-Jan-19 06:00N 51°06' E 003°44'0 0.0
2018-Jan-19 05:28N 51°06' E 003°44'0 0.0
2018-Jan-19 04:57N 51°06' E 003°44'0 0.0
2018-Jan-19 04:30N 51°06' E 003°44'0 0.0
2018-Jan-19 04:00N 51°06' E 003°44'0 0.0
2018-Jan-19 03:28N 51°06' E 003°44'0 0.0
2018-Jan-19 02:52N 51°06' E 003°44'0 0.0
2018-Jan-19 02:29N 51°06' E 003°44'0 0.0
2018-Jan-19 02:00N 51°06' E 003°44'0 0.0
2018-Jan-19 01:29N 51°06' E 003°44'0 0.0
2018-Jan-19 01:00N 51°06' E 003°44'0 0.0
2018-Jan-19 00:30N 51°06' E 003°44'0 0.0
2018-Jan-18 23:58N 51°06' E 003°44'0 0.0
2018-Jan-18 23:29N 51°06' E 003°44'0 0.0
2018-Jan-18 22:58N 51°06' E 003°44'0 0.0
2018-Jan-18 22:30N 51°06' E 003°44'0 0.0
2018-Jan-18 21:58N 51°06' E 003°44'0 0.0
2018-Jan-18 21:29N 51°06' E 003°44'0 0.0
2018-Jan-18 20:58N 51°06' E 003°44'0 0.0
2018-Jan-18 20:30N 51°06' E 003°44'0 0.0
2018-Jan-18 19:59N 51°06' E 003°44'0 0.0
2018-Jan-18 19:27N 51°06' E 003°44'0 0.0
2018-Jan-18 18:57N 51°06' E 003°44'0 0.0
2018-Jan-18 18:29N 51°06' E 003°44'0 0.0
2018-Jan-18 18:00N 51°06' E 003°44'0 0.0
2018-Jan-18 17:30N 51°06' E 003°44'0 0.0
2018-Jan-18 17:00N 51°06' E 003°44'0 0.0
2018-Jan-18 16:30N 51°06' E 003°44'0 0.0
2018-Jan-18 16:00N 51°06' E 003°44'0 0.0
2018-Jan-18 15:30N 51°06' E 003°44'0 0.0
2018-Jan-18 15:01N 51°06' E 003°44'0 0.0
2018-Jan-18 14:30N 51°06' E 003°44'0 0.0
2018-Jan-18 14:01N 51°06' E 003°44'0 0.0
2018-Jan-18 13:30N 51°06' E 003°44'0 0.0
2018-Jan-18 13:00N 51°06' E 003°44'0 0.0
2018-Jan-18 12:30N 51°06' E 003°44'0 0.0
2018-Jan-18 12:00N 51°06' E 003°44'0 0.0
2018-Jan-18 11:29N 51°06' E 003°44'0 0.0
2018-Jan-18 11:01N 51°06' E 003°44'0 0.0
2018-Jan-18 10:31N 51°06' E 003°44'0 0.0
2018-Jan-18 10:01N 51°06' E 003°44'0 0.0
2018-Jan-18 09:30N 51°06' E 003°44'0 0.0
2018-Jan-18 09:00N 51°06' E 003°44'0 0.0
2018-Jan-18 08:29N 51°06' E 003°44'0 0.0
2018-Jan-18 08:00N 51°06' E 003°44'0 0.0
2018-Jan-18 07:30N 51°06' E 003°44'0 0.0
2018-Jan-18 07:00N 51°06' E 003°44'0 0.0
2018-Jan-18 06:30N 51°06' E 003°44'0 0.0
2018-Jan-18 06:00N 51°06' E 003°44'0 0.0
2018-Jan-18 05:30N 51°06' E 003°44'0 0.0
2018-Jan-18 05:01N 51°06' E 003°44'0 0.0
2018-Jan-18 04:30N 51°06' E 003°44'0 0.0
2018-Jan-18 04:00N 51°06' E 003°44'0 0.0
2018-Jan-18 03:29N 51°06' E 003°44'0 0.0
2018-Jan-18 03:00N 51°06' E 003°44'0 0.0
2018-Jan-18 02:30N 51°06' E 003°44'0 0.0
2018-Jan-18 02:00N 51°06' E 003°44'0 0.0
2018-Jan-18 01:30N 51°06' E 003°44'0 0.0
2018-Jan-18 01:00N 51°06' E 003°44'0 0.0
2018-Jan-18 00:01N 51°06' E 003°44'0 0.0
2018-Jan-17 23:58N 51°06' E 003°44'  
2018-Jan-12 15:00N 51°06' E 003°44'0 0.5
2018-Jan-12 14:30N 51°06' E 003°45'1 1.8
2018-Jan-12 13:58N 51°05' E 003°45'0 0.0
2018-Jan-12 13:27N 51°05' E 003°45'0 0.0
2018-Jan-12 12:59N 51°05' E 003°45'0 0.0
2018-Jan-12 12:28N 51°05' E 003°45'0 0.0
2018-Jan-12 11:58N 51°05' E 003°45'0 0.0
2018-Jan-12 11:28N 51°05' E 003°45'0 0.0
2018-Jan-12 11:00N 51°05' E 003°45'0 0.0
2018-Jan-12 10:30N 51°05' E 003°45'0 0.0
2018-Jan-12 09:57N 51°05' E 003°45'0 0.0
2018-Jan-12 09:30N 51°05' E 003°45'0 0.0
2018-Jan-12 08:56N 51°05' E 003°45'0 0.0
2018-Jan-12 08:29N 51°05' E 003°45'0 0.0
2018-Jan-12 07:59N 51°05' E 003°45'0 0.0
2018-Jan-12 07:28N 51°05' E 003°45'0 0.0
2018-Jan-12 06:58N 51°05' E 003°45'0 0.0
2018-Jan-12 06:28N 51°05' E 003°45'0 0.0
2018-Jan-12 06:00N 51°05' E 003°45'0 0.0
2018-Jan-12 05:30N 51°05' E 003°45'0 0.0
2018-Jan-12 05:00N 51°05' E 003°45'0 0.0
2018-Jan-12 04:27N 51°05' E 003°45'0 0.0
2018-Jan-12 03:56N 51°05' E 003°45'0 0.0
2018-Jan-12 03:29N 51°05' E 003°45'0 0.0
2018-Jan-12 02:59N 51°05' E 003°45'0 0.0
2018-Jan-12 02:28N 51°05' E 003°45'0 0.0
2018-Jan-12 01:49N 51°05' E 003°45'0 0.0
2018-Jan-12 01:30N 51°05' E 003°45'0 0.0
2018-Jan-12 01:00N 51°05' E 003°45'0 0.0
2018-Jan-12 00:30N 51°05' E 003°45'0 0.0
2018-Jan-12 00:00N 51°05' E 003°45'0 0.0
2018-Jan-11 23:28N 51°05' E 003°45'0 0.0
2018-Jan-11 22:56N 51°05' E 003°45'0 0.0
2018-Jan-11 22:29N 51°05' E 003°45'0 0.0
2018-Jan-11 21:59N 51°05' E 003°45'0 0.0
2018-Jan-11 21:25N 51°05' E 003°45'0 0.0
2018-Jan-11 20:52N 51°05' E 003°45'0 0.0
2018-Jan-11 20:28N 51°05' E 003°45'0 0.0
2018-Jan-11 20:00N 51°05' E 003°45'0 0.0
2018-Jan-11 19:27N 51°05' E 003°45'0 0.0
2018-Jan-11 19:00N 51°05' E 003°45'0 0.0
2018-Jan-11 18:26N 51°05' E 003°45'0 0.0
2018-Jan-11 17:53N 51°05' E 003°45'0 0.0
2018-Jan-11 17:26N 51°05' E 003°45'0 0.0
2018-Jan-11 16:59N 51°05' E 003°45'0 0.0
2018-Jan-11 16:25N 51°05' E 003°45'0 0.0
2018-Jan-11 15:55N 51°05' E 003°45'0 0.0
2018-Jan-11 15:22N 51°05' E 003°45'0 0.0
2018-Jan-11 15:00N 51°05' E 003°45'0 0.0
2018-Jan-11 14:27N 51°05' E 003°45'0 0.0
2018-Jan-11 13:57N 51°05' E 003°45'0 0.0
2018-Jan-11 13:26N 51°05' E 003°45'0 0.0
2018-Jan-11 12:59N 51°05' E 003°45'0 0.0
2018-Jan-11 12:28N 51°05' E 003°45'0 0.0
2018-Jan-11 11:58N 51°05' E 003°45'0 0.0
2018-Jan-11 11:30N 51°05' E 003°45'0 0.0
2018-Jan-11 10:57N 51°05' E 003°45'0 0.0
2018-Jan-11 10:30N 51°05' E 003°45'0 0.0
2018-Jan-11 09:56N 51°05' E 003°45'0 0.0
2018-Jan-11 09:26N 51°05' E 003°45'0 0.0
2018-Jan-11 08:59N 51°05' E 003°45'0 0.0
2018-Jan-11 08:16N 51°05' E 003°45'0 0.0
2018-Jan-11 07:55N 51°05' E 003°45'0 0.0
2018-Jan-11 07:25N 51°05' E 003°45'0 0.0
2018-Jan-11 06:51N 51°05' E 003°45'0 0.0
2018-Jan-11 06:30N 51°05' E 003°45'0 0.0
2018-Jan-11 06:00N 51°05' E 003°45'0 0.0
2018-Jan-11 05:29N 51°05' E 003°45'0 0.0
2018-Jan-11 04:59N 51°05' E 003°45'0 0.0
2018-Jan-11 04:29N 51°05' E 003°45'0 0.0
2018-Jan-11 03:59N 51°05' E 003°45'0 0.0
2018-Jan-11 03:28N 51°05' E 003°45'0 0.0
2018-Jan-11 02:58N 51°05' E 003°45'0 0.0
2018-Jan-11 02:28N 51°05' E 003°45'0 0.0
2018-Jan-11 02:00N 51°05' E 003°45'0 0.0
2018-Jan-11 01:30N 51°05' E 003°45'0 0.0
2018-Jan-11 01:00N 51°05' E 003°45'0 0.0
2018-Jan-11 00:29N 51°05' E 003°45'0 0.0
2018-Jan-10 23:59N 51°05' E 003°45'0 0.0
2018-Jan-10 23:29N 51°05' E 003°45'0 0.0
2018-Jan-10 22:58N 51°05' E 003°45'0 0.0
2018-Jan-10 22:28N 51°05' E 003°45'0 0.0
2018-Jan-10 22:00N 51°05' E 003°45'0 0.0
2018-Jan-10 21:27N 51°05' E 003°45'0 0.0
2018-Jan-10 20:54N 51°05' E 003°45'0 0.0
2018-Jan-10 20:27N 51°05' E 003°45'0 0.0
2018-Jan-10 20:00N 51°05' E 003°45'0 0.0
2018-Jan-10 19:23N 51°05' E 003°45'0 0.0
2018-Jan-10 18:56N 51°05' E 003°45'0 0.0
2018-Jan-10 18:26N 51°05' E 003°45'0 0.0
2018-Jan-10 17:49N 51°05' E 003°45'0 0.0
2018-Jan-10 17:28N 51°05' E 003°45'0 0.0
2018-Jan-10 16:53N 51°05' E 003°45'0 0.0
2018-Jan-10 16:30N 51°05' E 003°45'0 0.0
2018-Jan-10 16:00N 51°05' E 003°45'0 0.0
2018-Jan-10 15:30N 51°05' E 003°45'0 0.0
2018-Jan-10 14:57N 51°05' E 003°45'0 0.0
2018-Jan-10 14:29N 51°05' E 003°45'0 0.0
2018-Jan-10 13:59N 51°05' E 003°45'0 0.0
2018-Jan-10 13:28N 51°05' E 003°45'0 0.0
2018-Jan-10 13:00N 51°05' E 003°45'0 0.0
2018-Jan-10 12:28N 51°05' E 003°45'0 0.0
2018-Jan-10 11:58N 51°05' E 003°45'0 0.0
2018-Jan-10 11:27N 51°05' E 003°45'0 0.0
2018-Jan-10 11:00N 51°05' E 003°45'0 0.0
2018-Jan-10 10:30N 51°05' E 003°45'0 0.0
2018-Jan-10 10:00N 51°05' E 003°45'0 0.0
2018-Jan-10 09:29N 51°05' E 003°45'0 0.0
2018-Jan-10 08:59N 51°05' E 003°45'0 0.0
2018-Jan-10 08:28N 51°05' E 003°45'0 0.0
2018-Jan-10 07:58N 51°05' E 003°45'0 0.0
2018-Jan-10 07:28N 51°05' E 003°45'0 0.0
2018-Jan-10 07:00N 51°05' E 003°45'0 0.0
2018-Jan-10 06:30N 51°05' E 003°45'0 0.0
2018-Jan-10 06:00N 51°05' E 003°45'0 0.0
2018-Jan-10 05:30N 51°05' E 003°45'  

Dump ship's entire track history